createdAt,value
2023-02-21T00:02:07.732Z,27.33
2023-02-21T00:04:53.205Z,23.23
2023-02-21T00:07:39.129Z,26.70
2023-02-21T00:10:26.529Z,28.08
2023-02-21T00:13:12.325Z,27.50
2023-02-21T00:15:58.441Z,26.50
2023-02-21T00:18:45.507Z,28.95
2023-02-21T00:21:31.604Z,26.77
2023-02-21T00:24:17.041Z,31.48
2023-02-21T00:27:02.561Z,28.85
2023-02-21T00:29:49.564Z,29.25
2023-02-21T00:32:36.960Z,29.88
2023-02-21T00:35:24.430Z,28.77
2023-02-21T00:38:18.616Z,31.90
2023-02-21T00:41:07.771Z,31.85
2023-02-21T00:43:54.764Z,32.50
2023-02-21T00:46:41.330Z,32.80
2023-02-21T00:49:27.325Z,34.97
2023-02-21T00:52:22.514Z,34.60
2023-02-21T00:55:09.941Z,35.72
2023-02-21T00:57:55.990Z,35.03
2023-02-21T01:00:42.880Z,29.70
2023-02-21T01:03:28.720Z,33.60
2023-02-21T01:06:14.620Z,31.17
2023-02-21T01:09:02.412Z,32.50
2023-02-21T01:11:49.354Z,32.28
2023-02-21T01:14:35.938Z,33.95
2023-02-21T01:17:22.281Z,29.73
2023-02-21T01:20:08.494Z,30.58
2023-02-21T01:22:55.680Z,30.45
2023-02-21T01:25:43.348Z,33.00
2023-02-21T01:28:29.226Z,25.92
2023-02-21T01:31:15.577Z,25.00
2023-02-21T01:34:13.774Z,24.27
2023-02-21T01:36:59.674Z,28.27
2023-02-21T01:39:45.723Z,27.52
2023-02-21T01:42:32.535Z,24.90
2023-02-21T01:46:04.640Z,25.35
2023-02-21T01:48:53.772Z,24.65
2023-02-21T01:51:42.900Z,27.77
2023-02-21T01:54:29.345Z,26.83
2023-02-21T01:57:15.842Z,27.98
2023-02-21T02:00:03.338Z,25.73
2023-02-21T02:02:52.772Z,25.38
2023-02-21T02:05:39.291Z,24.77
2023-02-21T02:08:25.313Z,27.17
2023-02-21T02:11:19.291Z,28.17
2023-02-21T02:14:03.316Z,26.55
2023-02-21T02:16:37.860Z,29.67
2023-02-21T02:19:42.886Z,25.50
2023-02-21T02:22:55.597Z,25.35
2023-02-21T02:25:39.684Z,23.25
2023-02-21T02:28:29.314Z,25.95
2023-02-21T02:31:18.680Z,27.00
2023-02-21T02:34:02.445Z,22.73
2023-02-21T02:36:36.919Z,23.05
2023-02-21T02:39:14.725Z,21.17
2023-02-21T02:41:50.303Z,24.50
2023-02-21T02:44:22.719Z,22.98
2023-02-21T02:49:22.144Z,20.30
2023-02-21T02:51:52.826Z,27.95
2023-02-21T02:54:20.963Z,21.45
2023-02-21T02:56:50.255Z,20.23
2023-02-21T02:59:22.718Z,20.90
2023-02-21T03:02:01.835Z,20.80
2023-02-21T03:04:41.818Z,25.05
2023-02-21T03:07:16.799Z,19.98
2023-02-21T03:09:49.874Z,24.27
2023-02-21T03:12:22.803Z,20.52
2023-02-21T03:14:56.031Z,24.45
2023-02-21T03:17:27.424Z,21.48
2023-02-21T03:19:56.411Z,21.95
2023-02-21T03:22:28.711Z,21.10
2023-02-21T03:27:26.911Z,23.67
2023-02-21T03:29:55.908Z,23.00
2023-02-21T03:32:26.738Z,24.10
2023-02-21T03:34:55.542Z,25.30
2023-02-21T03:37:32.716Z,20.85
2023-02-21T03:40:02.508Z,23.35
2023-02-21T03:42:30.921Z,21.85
2023-02-21T03:44:59.169Z,27.13
2023-02-21T03:47:27.674Z,25.00
2023-02-21T03:49:56.182Z,25.05
2023-02-21T03:52:24.569Z,25.25
2023-02-21T03:54:54.234Z,24.13
2023-02-21T03:57:22.437Z,24.13
2023-02-21T03:59:50.899Z,25.10
2023-02-21T04:02:19.432Z,31.75
2023-02-21T04:04:48.898Z,23.67
2023-02-21T04:07:17.777Z,24.23
2023-02-21T04:09:46.424Z,28.23
2023-02-21T04:12:16.395Z,24.95
2023-02-21T04:14:44.947Z,25.02
2023-02-21T04:17:13.456Z,24.08
2023-02-21T04:19:41.695Z,27.75
2023-02-21T04:22:12.592Z,25.42
2023-02-21T04:24:40.789Z,27.65
2023-02-21T04:27:09.985Z,26.20
2023-02-21T04:29:39.436Z,24.25
2023-02-21T04:32:07.886Z,29.48
2023-02-21T04:34:36.054Z,28.27
2023-02-21T04:37:04.201Z,34.28
2023-02-21T04:39:32.345Z,26.83
2023-02-21T04:42:00.364Z,33.25
2023-02-21T04:44:28.386Z,29.23
2023-02-21T04:46:57.925Z,30.98
2023-02-21T04:49:27.616Z,29.02
2023-02-21T04:51:56.225Z,27.85
2023-02-21T04:54:25.221Z,23.70
2023-02-21T04:56:53.492Z,29.95
2023-02-21T04:59:21.681Z,25.60
2023-02-21T05:01:49.746Z,27.02
2023-02-21T05:04:19.216Z,25.58
2023-02-21T05:06:47.760Z,26.92
2023-02-21T05:09:16.742Z,26.80
2023-02-21T05:11:46.422Z,28.05
2023-02-21T05:14:14.931Z,24.95
2023-02-21T05:16:43.271Z,26.85
2023-02-21T05:19:11.875Z,26.35
2023-02-21T05:21:41.482Z,27.58
2023-02-21T05:24:09.727Z,26.77
2023-02-21T05:26:39.927Z,28.15
2023-02-21T05:29:11.183Z,29.30
2023-02-21T05:31:39.414Z,25.20
2023-02-21T05:34:08.770Z,23.15
2023-02-21T05:36:36.923Z,25.25
2023-02-21T05:39:08.153Z,32.15
2023-02-21T05:41:37.809Z,25.02
2023-02-21T05:44:06.584Z,25.08
2023-02-21T05:46:36.206Z,25.98
2023-02-21T05:49:05.385Z,29.30
2023-02-21T05:51:35.593Z,26.67
2023-02-21T05:54:04.317Z,30.80
2023-02-21T05:56:39.322Z,25.58
2023-02-21T05:59:07.715Z,29.02
2023-02-21T06:01:35.911Z,28.80
2023-02-21T06:04:05.090Z,29.35
2023-02-21T06:06:33.488Z,28.23
2023-02-21T06:09:01.851Z,28.23
2023-02-21T06:11:38.657Z,27.08
2023-02-21T06:14:08.515Z,26.35
2023-02-21T06:16:38.721Z,28.50
2023-02-21T06:19:11.082Z,27.02
2023-02-21T06:24:08.946Z,24.48
2023-02-21T06:26:42.415Z,24.23
2023-02-21T06:29:12.064Z,27.10
2023-02-21T06:31:47.382Z,23.88
2023-02-21T06:34:15.712Z,27.25
2023-02-21T06:36:43.723Z,24.10
2023-02-21T06:39:12.586Z,23.60
2023-02-21T06:41:42.144Z,24.80
2023-02-21T06:44:10.289Z,24.17
2023-02-21T06:46:39.068Z,23.70
2023-02-21T06:49:07.078Z,22.90
2023-02-21T06:51:36.457Z,21.67
2023-02-21T06:54:06.223Z,24.70
2023-02-21T06:56:34.615Z,21.40
2023-02-21T06:59:04.397Z,25.15
2023-02-21T07:01:33.307Z,25.60
2023-02-21T07:04:01.478Z,25.75
2023-02-21T07:06:30.052Z,26.42
2023-02-21T07:09:00.545Z,29.00
2023-02-21T07:11:30.189Z,26.02
2023-02-21T07:13:59.393Z,29.48
2023-02-21T07:16:29.440Z,29.85
2023-02-21T07:18:57.674Z,31.52
2023-02-21T07:21:27.967Z,29.95
2023-02-21T07:23:56.169Z,35.25
2023-02-21T07:26:24.391Z,30.45
2023-02-21T07:28:53.360Z,36.47
2023-02-21T07:31:22.089Z,33.08
2023-02-21T07:33:51.834Z,33.85
2023-02-21T07:36:20.067Z,39.25
2023-02-21T07:38:48.234Z,35.47
2023-02-21T07:41:17.889Z,38.83
2023-02-21T07:43:46.077Z,41.85
2023-02-21T07:46:15.840Z,39.50
2023-02-21T07:48:43.981Z,35.90
2023-02-21T07:51:17.119Z,34.95
2023-02-21T07:53:57.038Z,35.50
2023-02-21T07:56:25.265Z,29.80
2023-02-21T07:58:53.320Z,35.08
2023-02-21T08:01:25.092Z,33.35
2023-02-21T08:03:53.573Z,30.48
2023-02-21T08:06:23.200Z,31.08
2023-02-21T08:08:51.747Z,26.55
2023-02-21T08:11:22.462Z,31.73
2023-02-21T08:13:50.768Z,28.45
2023-02-21T08:16:19.022Z,26.17
2023-02-21T08:18:48.661Z,28.58
2023-02-21T08:21:17.175Z,26.63
2023-02-21T08:23:47.437Z,28.52
2023-02-21T08:26:15.688Z,26.25
2023-02-21T08:28:46.912Z,28.00
2023-02-21T08:31:15.800Z,26.77
2023-02-21T08:33:44.409Z,25.08
2023-02-21T08:36:15.142Z,21.02
2023-02-21T08:38:43.283Z,19.88
2023-02-21T08:41:13.287Z,20.40
2023-02-21T08:43:41.785Z,16.23
2023-02-21T08:46:10.261Z,14.60
2023-02-21T08:48:39.162Z,15.77
2023-02-21T08:51:07.773Z,16.40
2023-02-21T08:53:35.884Z,14.63
2023-02-21T08:56:04.278Z,12.50
2023-02-21T08:58:34.945Z,13.00
2023-02-21T09:01:04.646Z,9.97
2023-02-21T09:03:32.754Z,3.80
2023-02-21T09:06:00.848Z,5.82
2023-02-21T09:08:30.930Z,3.42
2023-02-21T09:11:01.553Z,2.20
2023-02-21T09:13:30.749Z,3.03
2023-02-21T09:16:00.969Z,2.15
2023-02-21T09:18:31.014Z,3.88
2023-02-21T09:21:00.140Z,0.98
2023-02-21T09:23:33.477Z,1.50
2023-02-21T09:26:02.081Z,1.15
2023-02-21T09:28:32.439Z,3.17
2023-02-21T09:31:02.169Z,1.50
2023-02-21T09:33:31.084Z,2.33
2023-02-21T09:36:00.199Z,4.35
2023-02-21T09:38:28.246Z,2.03
2023-02-21T09:41:00.237Z,3.08
2023-02-21T09:43:33.343Z,2.55
2023-02-21T09:46:06.022Z,2.33
2023-02-21T09:48:34.512Z,5.47
2023-02-21T09:51:07.896Z,3.97
2023-02-21T09:53:43.446Z,2.08
2023-02-21T09:56:15.033Z,4.00
2023-02-21T09:58:45.113Z,3.70
2023-02-21T10:01:22.920Z,2.17
2023-02-21T10:03:56.560Z,1.30
2023-02-21T10:06:32.971Z,2.65
2023-02-21T10:09:05.063Z,1.48
2023-02-21T10:11:41.546Z,2.55
2023-02-21T10:14:20.696Z,0.80
2023-02-21T10:16:55.438Z,1.17
2023-02-21T10:19:29.971Z,1.40
2023-02-21T10:21:59.740Z,0.60
2023-02-21T10:24:30.536Z,2.65
2023-02-21T10:27:03.346Z,1.55
2023-02-21T10:29:39.309Z,0.70
2023-02-21T10:32:09.342Z,0.82
2023-02-21T10:34:38.129Z,1.95
2023-02-21T10:37:23.452Z,1.17
2023-02-21T10:39:53.638Z,2.17
2023-02-21T10:42:30.617Z,0.75
2023-02-21T10:44:58.687Z,4.68
2023-02-21T10:47:35.424Z,1.23
2023-02-21T10:50:07.577Z,1.73
2023-02-21T10:52:38.576Z,1.75
2023-02-21T10:55:19.974Z,2.63
2023-02-21T10:57:56.717Z,0.68
2023-02-21T11:00:27.160Z,1.38
2023-02-21T11:03:06.671Z,2.90
2023-02-21T11:05:39.570Z,0.70
2023-02-21T11:08:09.375Z,2.90
2023-02-21T11:10:41.747Z,0.75
2023-02-21T11:15:47.271Z,1.67
2023-02-21T11:18:19.814Z,1.33
2023-02-21T11:20:48.565Z,2.55
2023-02-21T11:23:25.161Z,2.92
2023-02-21T11:25:59.512Z,1.35
2023-02-21T11:28:27.955Z,1.42
2023-02-21T11:31:10.080Z,1.65
2023-02-21T11:33:41.429Z,3.17
2023-02-21T11:36:13.454Z,5.22
2023-02-21T11:38:43.676Z,2.15
2023-02-21T11:41:25.151Z,2.13
2023-02-21T11:43:54.589Z,1.00
2023-02-21T11:46:37.067Z,1.58
2023-02-21T11:49:11.433Z,2.22
2023-02-21T11:51:44.176Z,2.85
2023-02-21T11:54:13.668Z,4.10
2023-02-21T11:56:54.614Z,3.42
2023-02-21T11:59:30.620Z,0.93
2023-02-21T12:02:15.277Z,2.25
2023-02-21T12:05:00.877Z,1.80
2023-02-21T12:07:38.712Z,4.60
2023-02-21T12:10:17.659Z,2.17
2023-02-21T12:12:51.544Z,1.45
2023-02-21T12:15:23.112Z,4.75
2023-02-21T12:18:21.741Z,2.17
2023-02-21T12:21:15.860Z,0.73
2023-02-21T12:23:51.705Z,1.52
2023-02-21T12:26:30.694Z,4.10
2023-02-21T12:29:06.526Z,3.40
2023-02-21T12:31:46.139Z,4.05
2023-02-21T12:34:24.446Z,2.17
2023-02-21T12:37:14.445Z,3.10
2023-02-21T12:39:59.348Z,1.13
2023-02-21T12:42:47.434Z,2.03
2023-02-21T12:45:30.673Z,1.88
2023-02-21T12:48:02.641Z,3.85
2023-02-21T12:50:33.527Z,3.08
2023-02-21T12:53:04.865Z,1.27
2023-02-21T12:55:35.559Z,2.78
2023-02-21T12:58:10.978Z,3.95
2023-02-21T13:00:44.291Z,1.52
2023-02-21T13:03:25.246Z,2.43
2023-02-21T13:05:58.561Z,3.97
2023-02-21T13:11:01.885Z,1.92
2023-02-21T13:13:32.300Z,2.58
2023-02-21T13:16:02.696Z,1.77
2023-02-21T13:18:34.125Z,1.10
2023-02-21T13:21:16.016Z,2.25
2023-02-21T13:23:51.793Z,1.63
2023-02-21T13:26:37.547Z,4.40
2023-02-21T13:29:14.509Z,2.00
2023-02-21T13:31:46.154Z,2.05
2023-02-21T13:34:20.677Z,3.33
2023-02-21T13:36:49.961Z,1.00
2023-02-21T13:39:23.161Z,1.73
2023-02-21T13:41:55.826Z,3.80
2023-02-21T13:44:26.548Z,4.10
2023-02-21T13:47:08.047Z,2.00
2023-02-21T13:49:57.464Z,1.10
2023-02-21T13:52:55.269Z,1.70
2023-02-21T13:55:43.740Z,1.13
2023-02-21T13:58:34.578Z,2.65
2023-02-21T14:01:32.610Z,4.60
2023-02-21T14:04:01.120Z,1.83
2023-02-21T14:06:36.983Z,2.10
2023-02-21T14:09:16.134Z,2.25
2023-02-21T14:11:52.014Z,1.88
2023-02-21T14:14:26.953Z,2.80
2023-02-21T14:17:02.557Z,3.70
2023-02-21T14:19:37.119Z,2.33
2023-02-21T14:22:10.715Z,4.10
2023-02-21T14:24:40.368Z,3.22
2023-02-21T14:27:35.539Z,1.05
2023-02-21T14:30:25.495Z,4.70
2023-02-21T14:32:58.119Z,2.58
2023-02-21T14:38:03.269Z,2.50
2023-02-21T14:40:38.181Z,1.52
2023-02-21T14:43:22.746Z,1.52
2023-02-21T14:46:04.418Z,2.33
2023-02-21T14:48:47.164Z,3.37
2023-02-21T14:51:49.404Z,2.40
2023-02-21T14:54:30.747Z,2.72
2023-02-21T14:57:22.449Z,2.00
2023-02-21T15:00:05.457Z,6.47
2023-02-21T15:02:40.335Z,3.35
2023-02-21T15:05:13.485Z,1.50
2023-02-21T15:07:54.071Z,2.75
2023-02-21T15:10:25.174Z,4.20
2023-02-21T15:12:56.159Z,1.00
2023-02-21T15:15:28.071Z,1.35
2023-02-21T15:18:00.335Z,2.15
2023-02-21T15:23:00.782Z,3.47
2023-02-21T15:25:30.299Z,2.00
2023-02-21T15:28:05.032Z,2.53
2023-02-21T15:30:40.005Z,2.20
2023-02-21T15:33:23.267Z,8.18
2023-02-21T15:35:55.100Z,4.85
2023-02-21T15:38:31.086Z,3.05
2023-02-21T15:41:05.165Z,7.18
2023-02-21T15:43:43.828Z,2.88
2023-02-21T15:46:18.997Z,4.85
2023-02-21T15:48:47.820Z,5.32
2023-02-21T15:51:17.412Z,6.40
2023-02-21T15:54:13.269Z,4.80
2023-02-21T15:56:42.497Z,4.25
2023-02-21T15:59:18.885Z,4.95
2023-02-21T16:02:08.420Z,5.13
2023-02-21T16:04:38.561Z,3.45
2023-02-21T16:07:14.926Z,7.00
2023-02-21T16:09:51.688Z,6.13
2023-02-21T16:12:28.164Z,5.95
2023-02-21T16:15:00.183Z,4.88
2023-02-21T16:17:37.355Z,4.72
2023-02-21T16:20:16.611Z,6.13
2023-02-21T16:23:06.667Z,7.13
2023-02-21T16:25:35.601Z,7.63
2023-02-21T16:28:06.612Z,11.50
2023-02-21T16:34:13.297Z,8.63
2023-02-21T16:36:44.338Z,4.85
2023-02-21T16:39:16.366Z,9.77
2023-02-21T16:41:44.854Z,10.65
2023-02-21T16:44:13.354Z,9.80
2023-02-21T16:46:41.755Z,8.13
2023-02-21T16:49:10.900Z,6.18
2023-02-21T16:51:43.677Z,7.05
2023-02-21T16:54:13.510Z,6.03
2023-02-21T16:56:42.838Z,8.32
2023-02-21T16:59:13.742Z,5.68
2023-02-21T17:01:43.854Z,13.70
2023-02-21T17:04:17.385Z,8.43
2023-02-21T17:06:48.307Z,5.22
2023-02-21T17:09:23.866Z,8.80
2023-02-21T17:11:53.067Z,8.23
2023-02-21T17:14:21.750Z,6.32
2023-02-21T17:16:50.057Z,8.57
2023-02-21T17:19:21.197Z,7.93
2023-02-21T17:21:49.494Z,10.85
2023-02-21T17:24:17.968Z,4.65
2023-02-21T17:26:47.472Z,9.25
2023-02-21T17:29:15.523Z,10.77
2023-02-21T17:31:43.918Z,9.40
2023-02-21T17:34:14.027Z,5.65
2023-02-21T17:36:42.271Z,5.75
2023-02-21T17:39:10.993Z,7.63
2023-02-21T17:41:47.802Z,4.63
2023-02-21T17:44:18.079Z,6.88
2023-02-21T17:46:50.109Z,6.07
2023-02-21T17:49:20.704Z,9.05
2023-02-21T17:51:49.446Z,7.85
2023-02-21T17:54:20.943Z,8.43
2023-02-21T17:56:51.228Z,8.43
2023-02-21T17:59:20.890Z,8.05
2023-02-21T18:01:49.473Z,4.47
2023-02-21T18:04:18.256Z,6.90
2023-02-21T18:06:46.581Z,9.00
2023-02-21T18:09:15.889Z,10.07
2023-02-21T18:11:50.616Z,8.30
2023-02-21T18:14:18.869Z,8.25
2023-02-21T18:16:51.614Z,8.43
2023-02-21T18:19:21.045Z,10.65
2023-02-21T18:21:49.529Z,10.90
2023-02-21T18:24:18.952Z,7.60
2023-02-21T18:26:48.017Z,10.10
2023-02-21T18:29:17.818Z,9.23
2023-02-21T18:31:46.170Z,8.35
2023-02-21T18:34:14.517Z,10.27
2023-02-21T18:36:48.779Z,7.53
2023-02-21T18:39:17.220Z,8.00
2023-02-21T18:41:45.512Z,4.18
2023-02-21T18:48:26.910Z,9.75
2023-02-21T18:51:15.618Z,21.20
2023-02-21T18:53:44.986Z,25.95
2023-02-21T18:56:15.093Z,22.30
2023-02-21T18:58:43.531Z,26.98
2023-02-21T19:01:15.502Z,25.65
2023-02-21T19:03:46.064Z,23.52
2023-02-21T19:06:18.754Z,26.50
2023-02-21T19:08:49.364Z,15.30
2023-02-21T19:11:19.267Z,11.40
2023-02-21T19:13:49.958Z,10.20
2023-02-21T19:16:20.263Z,5.00
2023-02-21T19:18:52.208Z,10.23
2023-02-21T19:21:20.871Z,11.05
2023-02-21T19:23:49.998Z,13.50
2023-02-21T19:26:19.049Z,8.38
2023-02-21T19:28:47.530Z,8.93
2023-02-21T19:31:18.971Z,10.15
2023-02-21T19:33:47.854Z,8.73
2023-02-21T19:36:17.851Z,5.05
2023-02-21T19:38:48.096Z,14.82
2023-02-21T19:41:18.040Z,7.55
2023-02-21T19:43:48.096Z,7.13
2023-02-21T19:46:24.925Z,14.27
2023-02-21T19:48:54.452Z,12.10
2023-02-21T19:51:25.664Z,11.25
2023-02-21T19:53:54.124Z,12.07
2023-02-21T19:56:23.146Z,13.15
2023-02-21T19:58:53.556Z,15.57
2023-02-21T20:01:25.596Z,8.90
2023-02-21T20:03:54.017Z,13.27
2023-02-21T20:06:24.809Z,9.27
2023-02-21T20:08:54.956Z,6.85
2023-02-21T20:11:24.663Z,10.85
2023-02-21T20:13:53.241Z,8.20
2023-02-21T20:16:22.668Z,11.20
2023-02-21T20:18:51.919Z,9.98
2023-02-21T20:21:20.885Z,9.88
2023-02-21T20:23:52.154Z,14.85
2023-02-21T20:26:23.589Z,16.15
2023-02-21T20:28:54.165Z,11.50
2023-02-21T20:31:24.483Z,11.43
2023-02-21T20:33:52.739Z,10.07
2023-02-21T20:36:28.194Z,13.63
2023-02-21T20:38:59.689Z,11.15
2023-02-21T20:41:31.171Z,8.90
2023-02-21T20:43:59.651Z,9.20
2023-02-21T20:46:28.971Z,10.43
2023-02-21T20:48:58.850Z,11.20
2023-02-21T20:51:30.804Z,9.20
2023-02-21T20:54:01.221Z,10.80
2023-02-21T20:56:34.012Z,12.88
2023-02-21T20:59:03.869Z,13.23
2023-02-21T21:01:35.194Z,16.38
2023-02-21T21:04:05.351Z,20.48
2023-02-21T21:06:35.068Z,15.00
2023-02-21T21:09:05.965Z,15.55
2023-02-21T21:11:35.330Z,25.77
2023-02-21T21:14:10.724Z,20.80
2023-02-21T21:16:38.967Z,16.23
2023-02-21T21:19:07.134Z,21.58
2023-02-21T21:21:37.952Z,22.65
2023-02-21T21:24:08.963Z,26.40
2023-02-21T21:26:37.944Z,26.30
2023-02-21T21:29:09.373Z,25.00
2023-02-21T21:31:38.027Z,23.33
2023-02-21T21:34:06.449Z,28.45
2023-02-21T21:36:36.346Z,33.20
2023-02-21T21:39:07.330Z,31.65
2023-02-21T21:41:39.042Z,20.55
2023-02-21T21:44:09.794Z,38.47
2023-02-21T21:46:39.789Z,17.95
2023-02-21T21:49:10.686Z,26.50
2023-02-21T21:51:41.135Z,27.40
2023-02-21T21:54:12.909Z,27.58
2023-02-21T21:56:43.712Z,37.22
2023-02-21T21:59:12.248Z,28.80
2023-02-21T22:01:43.062Z,34.97
2023-02-21T22:04:15.808Z,31.52
2023-02-21T22:06:45.962Z,25.45
2023-02-21T22:09:16.269Z,28.35
2023-02-21T22:11:47.719Z,20.27
2023-02-21T22:14:17.418Z,23.57
2023-02-21T22:16:48.030Z,26.83
2023-02-21T22:19:17.393Z,29.50
2023-02-21T22:21:46.556Z,26.05
2023-02-21T22:24:16.755Z,34.47
2023-02-21T22:26:46.369Z,33.92
2023-02-21T22:29:16.534Z,22.40
2023-02-21T22:31:45.800Z,29.85
2023-02-21T22:34:23.718Z,29.90
2023-02-21T22:36:52.786Z,33.33
2023-02-21T22:39:22.114Z,37.28
2023-02-21T22:41:53.049Z,27.52
2023-02-21T22:44:24.644Z,31.35
2023-02-21T22:46:58.574Z,33.13
2023-02-21T22:49:32.849Z,34.63
2023-02-21T22:52:01.719Z,28.65
2023-02-21T22:54:31.647Z,37.42
2023-02-21T22:57:03.997Z,24.83
2023-02-21T23:02:05.254Z,19.95
2023-02-21T23:04:38.104Z,28.00
2023-02-21T23:07:08.053Z,22.20
2023-02-21T23:09:39.181Z,35.65
2023-02-21T23:12:08.984Z,28.65
2023-02-21T23:14:39.597Z,22.25
2023-02-21T23:17:08.297Z,32.10
2023-02-21T23:19:36.733Z,36.03
2023-02-21T23:22:09.975Z,22.95
2023-02-21T23:24:38.064Z,24.20
2023-02-21T23:27:08.973Z,28.85
2023-02-21T23:29:39.512Z,31.88
2023-02-21T23:32:12.031Z,32.83
2023-02-21T23:34:41.302Z,30.80
2023-02-21T23:37:12.628Z,23.25
2023-02-21T23:39:44.422Z,30.40
2023-02-21T23:42:13.023Z,29.80
2023-02-21T23:44:42.740Z,24.58
2023-02-21T23:47:11.012Z,29.92
2023-02-21T23:49:44.575Z,32.33
2023-02-21T23:52:13.272Z,40.38
2023-02-21T23:54:41.951Z,27.38
2023-02-21T23:57:10.218Z,28.23
2023-02-21T23:59:38.472Z,25.80
